createdAt,value
2018-09-17T00:01:06.585Z,4.40
2018-09-17T00:03:37.429Z,4.75
2018-09-17T00:06:09.109Z,4.50
2018-09-17T00:08:39.929Z,4.35
2018-09-17T00:11:10.656Z,4.12
2018-09-17T00:13:41.483Z,4.00
2018-09-17T00:16:13.059Z,4.34
2018-09-17T00:18:43.609Z,4.35
2018-09-17T00:21:14.397Z,4.72
2018-09-17T00:23:45.849Z,4.46
2018-09-17T00:26:21.144Z,3.70
2018-09-17T00:28:51.561Z,4.12
2018-09-17T00:31:21.366Z,4.23
2018-09-17T00:33:51.437Z,5.03
2018-09-17T00:36:21.296Z,4.27
2018-09-17T00:38:51.809Z,3.92
2018-09-17T00:41:22.670Z,4.62
2018-09-17T00:43:53.377Z,4.12
2018-09-17T00:46:26.177Z,4.22
2018-09-17T00:48:55.940Z,3.87
2018-09-17T00:51:26.873Z,3.70
2018-09-17T00:53:57.599Z,4.10
2018-09-17T00:56:28.561Z,4.10
2018-09-17T00:58:59.808Z,4.45
2018-09-17T01:01:31.038Z,4.30
2018-09-17T01:04:01.742Z,4.10
2018-09-17T01:06:32.592Z,4.50
2018-09-17T01:09:03.746Z,4.47
2018-09-17T01:11:34.644Z,4.15
2018-09-17T01:14:05.378Z,4.40
2018-09-17T01:16:36.709Z,4.74
2018-09-17T01:19:07.590Z,4.25
2018-09-17T01:21:38.346Z,4.17
2018-09-17T01:24:10.092Z,4.42
2018-09-17T01:26:40.728Z,4.20
2018-09-17T01:29:11.918Z,4.67
2018-09-17T01:31:43.569Z,4.66
2018-09-17T01:34:13.476Z,4.40
2018-09-17T01:36:44.781Z,4.38
2018-09-17T01:39:16.836Z,4.45
2018-09-17T01:41:46.635Z,4.43
2018-09-17T01:44:17.644Z,4.37
2018-09-17T01:46:48.653Z,4.28
2018-09-17T01:49:19.831Z,3.80
2018-09-17T01:51:50.885Z,4.12
2018-09-17T01:54:21.732Z,3.80
2018-09-17T01:56:52.571Z,4.30
2018-09-17T01:59:23.596Z,4.90
2018-09-17T02:01:54.537Z,4.78
2018-09-17T02:04:25.349Z,4.65
2018-09-17T02:06:56.856Z,4.86
2018-09-17T02:09:27.609Z,5.15
2018-09-17T02:11:58.912Z,4.83
2018-09-17T02:14:29.626Z,5.40
2018-09-17T02:17:00.897Z,3.87
2018-09-17T02:19:31.706Z,4.22
2018-09-17T02:22:02.585Z,4.67
2018-09-17T02:24:34.032Z,4.47
2018-09-17T02:27:04.795Z,4.20
2018-09-17T02:29:35.612Z,4.60
2018-09-17T02:32:06.169Z,4.34
2018-09-17T02:34:36.674Z,4.83
2018-09-17T02:37:07.522Z,4.03
2018-09-17T02:39:38.460Z,5.00
2018-09-17T02:42:10.516Z,5.04
2018-09-17T02:44:40.353Z,5.15
2018-09-17T02:47:11.835Z,4.60
2018-09-17T02:49:42.548Z,5.17
2018-09-17T02:52:13.812Z,5.34
2018-09-17T02:54:44.684Z,5.35
2018-09-17T02:57:15.977Z,5.03
2018-09-17T02:59:46.734Z,5.15
2018-09-17T03:02:17.601Z,5.25
2018-09-17T03:04:48.878Z,4.90
2018-09-17T03:07:19.715Z,4.85
2018-09-17T03:09:50.490Z,5.28
2018-09-17T03:12:21.890Z,4.68
2018-09-17T03:14:52.750Z,4.92
2018-09-17T03:17:24.562Z,5.42
2018-09-17T03:19:54.379Z,4.20
2018-09-17T03:22:25.833Z,4.92
2018-09-17T03:24:56.581Z,4.83
2018-09-17T03:27:27.496Z,4.90
2018-09-17T03:29:59.017Z,4.68
2018-09-17T03:32:29.703Z,4.83
2018-09-17T03:35:00.448Z,4.92
2018-09-17T03:37:31.753Z,5.08
2018-09-17T03:40:02.577Z,4.55
2018-09-17T03:42:33.474Z,5.05
2018-09-17T03:45:04.957Z,4.26
2018-09-17T03:47:35.825Z,4.72
2018-09-17T03:50:06.733Z,4.58
2018-09-17T03:52:37.481Z,4.92
2018-09-17T03:55:08.774Z,4.74
2018-09-17T03:57:39.544Z,4.58
2018-09-17T04:00:10.445Z,4.53
2018-09-17T04:02:41.761Z,5.38
2018-09-17T04:05:12.510Z,4.95
2018-09-17T04:07:43.798Z,4.66
2018-09-17T04:10:14.519Z,5.20
2018-09-17T04:12:45.772Z,5.14
2018-09-17T04:15:16.521Z,5.00
2018-09-17T04:17:47.701Z,4.92
2018-09-17T04:20:18.489Z,4.70
2018-09-17T04:22:49.912Z,5.34
2018-09-17T04:25:21.217Z,5.03
2018-09-17T04:27:52.252Z,5.45
2018-09-17T04:30:22.889Z,5.35
2018-09-17T04:32:54.407Z,5.35
2018-09-17T04:35:25.034Z,5.52
2018-09-17T04:37:55.628Z,6.20
2018-09-17T04:40:26.539Z,5.78
2018-09-17T04:42:57.796Z,5.52
2018-09-17T04:45:28.566Z,5.85
2018-09-17T04:47:59.549Z,6.00
2018-09-17T04:50:30.789Z,5.66
2018-09-17T04:53:01.789Z,6.08
2018-09-17T04:55:32.900Z,6.17
2018-09-17T04:58:03.738Z,6.37
2018-09-17T05:00:34.637Z,5.92
2018-09-17T05:03:05.444Z,7.20
2018-09-17T05:05:36.809Z,6.82
2018-09-17T05:08:07.630Z,7.37
2018-09-17T05:10:38.464Z,6.90
2018-09-17T05:13:09.810Z,7.02
2018-09-17T05:15:40.705Z,7.28
2018-09-17T05:18:11.525Z,7.17
2018-09-17T05:20:42.942Z,7.46
2018-09-17T05:23:13.705Z,7.35
2018-09-17T05:25:44.688Z,7.28
2018-09-17T05:28:15.508Z,7.25
2018-09-17T05:30:46.920Z,6.94
2018-09-17T05:33:17.737Z,6.85
2018-09-17T05:35:48.652Z,7.25
2018-09-17T05:38:19.441Z,7.53
2018-09-17T05:40:51.060Z,7.00
2018-09-17T05:43:21.749Z,6.58
2018-09-17T05:45:52.765Z,6.55
2018-09-17T05:48:23.661Z,6.53
2018-09-17T05:50:54.777Z,7.00
2018-09-17T05:53:25.577Z,6.60
2018-09-17T05:55:56.636Z,6.80
2018-09-17T05:58:27.459Z,6.97
2018-09-17T06:00:58.817Z,6.60
2018-09-17T06:03:29.600Z,5.85
2018-09-17T06:06:00.498Z,6.22
2018-09-17T06:08:31.487Z,6.15
2018-09-17T06:11:02.612Z,6.17
2018-09-17T06:13:33.554Z,6.33
2018-09-17T06:16:04.961Z,7.02
2018-09-17T06:18:35.715Z,6.08
2018-09-17T06:21:07.107Z,6.00
2018-09-17T06:23:37.685Z,5.58
2018-09-17T06:26:08.931Z,5.78
2018-09-17T06:28:39.867Z,5.58
2018-09-17T06:31:11.882Z,6.28
2018-09-17T06:33:41.863Z,5.90
2018-09-17T06:36:13.029Z,5.55
2018-09-17T06:38:44.211Z,5.50
2018-09-17T06:41:14.313Z,6.20
2018-09-17T06:43:44.736Z,5.16
2018-09-17T06:46:15.592Z,5.30
2018-09-17T06:48:46.641Z,4.83
2018-09-17T06:51:17.491Z,5.28
2018-09-17T06:53:48.509Z,5.60
2018-09-17T06:56:19.458Z,5.22
2018-09-17T06:58:50.909Z,5.44
2018-09-17T07:01:21.705Z,5.58
2018-09-17T07:03:52.761Z,5.40
2018-09-17T07:06:23.512Z,4.90
2018-09-17T07:08:54.804Z,5.24
2018-09-17T07:11:25.579Z,5.35
2018-09-17T07:13:56.504Z,5.90
2018-09-17T07:16:27.761Z,5.34
2018-09-17T07:18:58.771Z,5.25
2018-09-17T07:21:29.510Z,5.40
2018-09-17T07:24:00.904Z,4.85
2018-09-17T07:26:32.428Z,5.08
2018-09-17T07:29:02.774Z,5.10
2018-09-17T07:31:33.357Z,5.15
2018-09-17T07:34:04.718Z,4.52
2018-09-17T07:36:34.510Z,5.73
2018-09-17T07:39:07.889Z,5.05
2018-09-17T07:41:37.877Z,4.58
2018-09-17T07:44:07.716Z,4.30
2018-09-17T07:46:38.548Z,4.20
2018-09-17T07:49:09.369Z,3.42
2018-09-17T07:51:40.802Z,3.54
2018-09-17T07:54:11.566Z,3.75
2018-09-17T07:56:42.620Z,4.22
2018-09-17T07:59:13.457Z,4.03
2018-09-17T08:01:44.863Z,3.80
2018-09-17T08:04:15.645Z,3.60
2018-09-17T08:06:46.475Z,3.80
2018-09-17T08:09:17.665Z,3.48
2018-09-17T08:11:48.746Z,3.35
2018-09-17T08:14:19.563Z,3.80
2018-09-17T08:16:50.518Z,3.30
2018-09-17T08:19:21.369Z,3.35
2018-09-17T08:21:53.033Z,3.40
2018-09-17T08:24:23.600Z,3.20
2018-09-17T08:26:54.453Z,2.77
2018-09-17T08:29:25.661Z,3.30
2018-09-17T08:31:56.185Z,3.30
2018-09-17T08:34:26.635Z,3.17
2018-09-17T08:36:57.491Z,3.50
2018-09-17T08:39:28.664Z,3.08
2018-09-17T08:41:59.555Z,3.22
2018-09-17T08:44:30.473Z,3.00
2018-09-17T08:47:01.806Z,3.10
2018-09-17T08:49:32.525Z,3.30
2018-09-17T08:52:03.691Z,3.30
2018-09-17T08:54:38.655Z,3.58
2018-09-17T08:57:13.403Z,3.57
2018-09-17T09:00:45.972Z,3.60
2018-09-17T09:03:20.572Z,3.97
2018-09-17T09:05:55.527Z,3.07
2018-09-17T09:08:25.861Z,3.20
2018-09-17T09:11:00.680Z,3.23
2018-09-17T09:13:39.630Z,3.23
2018-09-17T09:16:09.965Z,3.67
2018-09-17T09:18:39.725Z,3.50
2018-09-17T09:21:09.704Z,3.73
2018-09-17T09:23:39.710Z,3.47
2018-09-17T09:26:09.771Z,3.50
2018-09-17T09:28:46.377Z,3.27
2018-09-17T09:31:16.430Z,3.37
2018-09-17T09:33:46.396Z,3.57
2018-09-17T09:36:16.139Z,3.33
2018-09-17T09:38:45.771Z,3.13
2018-09-17T09:41:15.680Z,3.23
2018-09-17T09:43:49.215Z,2.80
2018-09-17T09:46:19.056Z,3.50
2018-09-17T09:48:48.975Z,3.20
2018-09-17T09:51:18.774Z,3.20
2018-09-17T09:53:48.707Z,2.90
2018-09-17T09:56:18.669Z,2.70
2018-09-17T09:58:48.886Z,3.13
2018-09-17T10:01:23.781Z,3.00
2018-09-17T10:03:58.653Z,3.20
2018-09-17T10:06:28.649Z,3.20
2018-09-17T10:09:03.722Z,2.87
2018-09-17T10:11:38.689Z,2.67
2018-09-17T10:14:13.642Z,2.80
2018-09-17T10:16:48.799Z,2.73
2018-09-17T10:19:21.645Z,2.50
2018-09-17T10:21:51.651Z,2.70
2018-09-17T10:24:21.722Z,2.60
2018-09-17T10:26:51.963Z,2.60
2018-09-17T10:29:21.633Z,2.60
2018-09-17T10:31:52.144Z,3.00
2018-09-17T10:34:21.885Z,3.50
2018-09-17T10:36:51.702Z,2.43
2018-09-17T10:39:21.698Z,2.90
2018-09-17T10:41:51.687Z,2.80
2018-09-17T10:44:22.103Z,2.90
2018-09-17T10:46:51.884Z,2.80
2018-09-17T10:49:21.793Z,2.90
2018-09-17T10:51:51.995Z,3.00
2018-09-17T10:54:21.757Z,2.60
2018-09-17T10:56:51.904Z,3.00
2018-09-17T10:59:21.709Z,2.67
2018-09-17T11:01:51.701Z,2.90
2018-09-17T11:04:21.748Z,2.47
2018-09-17T11:06:51.830Z,2.60
2018-09-17T11:09:21.841Z,2.57
2018-09-17T11:11:51.788Z,2.50
2018-09-17T11:14:21.912Z,3.17
2018-09-17T11:16:55.324Z,2.67
2018-09-17T11:19:36.473Z,2.60
2018-09-17T11:22:06.560Z,2.50
2018-09-17T11:24:36.223Z,2.60
2018-09-17T11:27:18.004Z,2.80
2018-09-17T11:29:47.956Z,2.77
2018-09-17T11:32:17.677Z,2.63
2018-09-17T11:34:48.258Z,2.90
2018-09-17T11:37:18.231Z,2.43
2018-09-17T11:39:47.930Z,2.90
2018-09-17T11:42:17.605Z,2.33
2018-09-17T11:44:47.769Z,2.62
2018-09-17T11:47:17.708Z,2.60
2018-09-17T11:49:47.734Z,2.73
2018-09-17T11:52:17.610Z,2.60
2018-09-17T11:54:47.691Z,3.08
2018-09-17T11:57:17.817Z,2.70
2018-09-17T11:59:47.699Z,2.60
2018-09-17T12:02:22.656Z,3.07
2018-09-17T12:04:59.497Z,2.30
2018-09-17T12:07:35.108Z,2.87
2018-09-17T12:10:05.409Z,2.47
2018-09-17T12:12:35.369Z,2.40
2018-09-17T12:15:05.490Z,2.30
2018-09-17T12:17:35.592Z,2.80
2018-09-17T12:20:06.188Z,2.90
2018-09-17T12:22:35.905Z,3.07
2018-09-17T12:25:05.888Z,2.47
2018-09-17T12:27:35.762Z,3.13
2018-09-17T12:30:06.018Z,2.50
2018-09-17T12:32:36.048Z,2.03
2018-09-17T12:35:05.852Z,2.30
2018-09-17T12:37:35.720Z,2.47
2018-09-17T12:40:06.124Z,2.30
2018-09-17T12:42:35.825Z,2.23
2018-09-17T12:45:06.095Z,2.50
2018-09-17T12:47:35.770Z,2.30
2018-09-17T12:50:06.113Z,2.30
2018-09-17T12:52:35.853Z,2.07
2018-09-17T12:55:05.697Z,2.20
2018-09-17T12:57:35.944Z,2.30
2018-09-17T13:00:07.007Z,2.30
2018-09-17T13:02:36.812Z,2.17
2018-09-17T13:05:07.103Z,2.30
2018-09-17T13:07:36.992Z,2.13
2018-09-17T13:10:06.821Z,2.33
2018-09-17T13:12:36.728Z,2.20
2018-09-17T13:15:07.700Z,2.17
2018-09-17T13:17:37.736Z,2.50
2018-09-17T13:20:08.637Z,2.17
2018-09-17T13:22:39.719Z,2.10
2018-09-17T13:25:09.774Z,2.00
2018-09-17T13:27:39.756Z,2.30
2018-09-17T13:30:09.856Z,2.13
2018-09-17T13:32:39.936Z,2.00
2018-09-17T13:35:09.616Z,2.00
2018-09-17T13:37:39.611Z,2.12
2018-09-17T13:40:09.760Z,2.30
2018-09-17T13:42:39.811Z,2.27
2018-09-17T13:45:09.988Z,2.00
2018-09-17T13:47:39.701Z,2.20
2018-09-17T13:50:09.840Z,1.90
2018-09-17T13:52:39.752Z,2.50
2018-09-17T13:55:09.649Z,2.37
2018-09-17T13:57:39.686Z,2.20
2018-09-17T14:00:09.763Z,2.07
2018-09-17T14:02:39.682Z,2.27
2018-09-17T14:05:10.148Z,2.50
2018-09-17T14:07:40.296Z,2.83
2018-09-17T14:10:10.071Z,2.20
2018-09-17T14:12:40.120Z,2.93
2018-09-17T14:15:09.898Z,2.80
2018-09-17T14:17:39.640Z,2.37
2018-09-17T14:20:10.036Z,2.00
2018-09-17T14:22:39.827Z,2.00
2018-09-17T14:25:09.687Z,2.13
2018-09-17T14:27:39.608Z,1.80
2018-09-17T14:30:09.852Z,2.03
2018-09-17T14:32:44.568Z,2.13
2018-09-17T14:35:14.284Z,2.30
2018-09-17T14:37:44.192Z,2.10
2018-09-17T14:40:14.436Z,2.10
2018-09-17T14:42:44.131Z,1.80
2018-09-17T14:45:13.974Z,2.13
2018-09-17T14:47:43.797Z,2.10
2018-09-17T14:50:14.118Z,2.00
2018-09-17T14:52:43.957Z,2.20
2018-09-17T14:55:14.096Z,2.10
2018-09-17T14:57:44.017Z,2.33
2018-09-17T15:00:14.027Z,2.37
2018-09-17T15:02:44.210Z,2.33
2018-09-17T15:05:14.140Z,2.40
2018-09-17T15:07:43.906Z,2.00
2018-09-17T15:10:14.055Z,2.43
2018-09-17T15:12:44.158Z,2.20
2018-09-17T15:15:14.037Z,2.27
2018-09-17T15:17:43.949Z,2.37
2018-09-17T15:20:13.783Z,2.77
2018-09-17T15:22:43.789Z,2.37
2018-09-17T15:25:13.733Z,2.37
2018-09-17T15:27:43.844Z,2.30
2018-09-17T15:30:20.650Z,2.23
2018-09-17T15:32:50.485Z,2.13
2018-09-17T15:35:20.366Z,2.20
2018-09-17T15:37:50.721Z,2.23
2018-09-17T15:40:20.813Z,2.20
2018-09-17T15:42:50.967Z,2.30
2018-09-17T15:45:21.081Z,2.33
2018-09-17T15:47:50.901Z,2.40
2018-09-17T15:50:22.883Z,2.30
2018-09-17T15:52:52.844Z,2.27
2018-09-17T15:55:30.159Z,2.57
2018-09-17T15:57:59.939Z,2.37
2018-09-17T16:00:29.824Z,2.43
2018-09-17T16:03:00.287Z,2.43
2018-09-17T16:05:30.101Z,2.47
2018-09-17T16:07:59.952Z,2.40
2018-09-17T16:10:29.780Z,2.57
2018-09-17T16:12:59.978Z,2.33
2018-09-17T16:15:29.779Z,2.47
2018-09-17T16:17:59.871Z,2.80
2018-09-17T16:20:29.865Z,2.97
2018-09-17T16:22:59.754Z,4.87
2018-09-17T16:25:29.924Z,3.97
2018-09-17T16:27:59.900Z,4.70
2018-09-17T16:30:29.778Z,6.30
2018-09-17T16:32:59.909Z,7.40
2018-09-17T16:35:29.660Z,6.90
2018-09-17T16:37:59.738Z,4.97
2018-09-17T16:40:29.848Z,6.07
2018-09-17T16:42:59.703Z,5.87
2018-09-17T16:45:30.013Z,5.27
2018-09-17T16:47:59.769Z,6.30
2018-09-17T16:50:30.062Z,6.60
2018-09-17T16:53:00.343Z,6.50
2018-09-17T16:55:30.488Z,6.93
2018-09-17T16:58:00.274Z,7.00
2018-09-17T17:00:30.056Z,7.23
2018-09-17T17:03:00.000Z,7.70
2018-09-17T17:05:29.731Z,8.90
2018-09-17T17:08:00.090Z,11.93
2018-09-17T17:10:30.284Z,10.78
2018-09-17T17:13:00.429Z,11.77
2018-09-17T17:15:30.229Z,14.73
2018-09-17T17:18:00.216Z,12.63
2018-09-17T17:20:30.538Z,10.72
2018-09-17T17:23:00.345Z,10.37
2018-09-17T17:25:30.215Z,10.23
2018-09-17T17:28:00.175Z,11.93
2018-09-17T17:30:30.257Z,13.17
2018-09-17T17:33:00.438Z,13.33
2018-09-17T17:35:30.432Z,13.00
2018-09-17T17:38:00.485Z,15.90
2018-09-17T17:40:30.418Z,15.07
2018-09-17T17:43:01.341Z,15.10
2018-09-17T17:45:31.924Z,14.86
2018-09-17T17:48:03.017Z,13.10
2018-09-17T17:50:33.656Z,13.68
2018-09-17T17:53:04.576Z,15.45
2018-09-17T17:55:35.921Z,15.98
2018-09-17T17:58:06.960Z,13.83
2018-09-17T18:00:37.801Z,13.25
2018-09-17T18:03:08.721Z,11.97
2018-09-17T18:05:39.653Z,11.57
2018-09-17T18:08:09.085Z,10.80
2018-09-17T18:10:39.694Z,10.82
2018-09-17T18:13:13.962Z,11.10
2018-09-17T18:15:43.926Z,10.47
2018-09-17T18:18:14.834Z,11.25
2018-09-17T18:20:46.001Z,12.30
2018-09-17T18:23:17.952Z,14.05
2018-09-17T18:25:47.801Z,13.13
2018-09-17T18:28:18.717Z,11.48
2018-09-17T18:30:58.059Z,12.98
2018-09-17T18:33:29.033Z,13.80
2018-09-17T18:35:58.862Z,12.97
2018-09-17T18:38:28.719Z,14.00
2018-09-17T18:40:58.561Z,14.03
2018-09-17T18:43:28.350Z,15.90
2018-09-17T18:45:59.030Z,16.42
2018-09-17T18:48:28.879Z,14.87
2018-09-17T18:50:58.883Z,14.18
2018-09-17T18:53:28.910Z,15.07
2018-09-17T18:55:59.658Z,16.87
2018-09-17T18:58:30.528Z,17.25
2018-09-17T19:01:01.425Z,16.27
2018-09-17T19:03:32.850Z,16.88
2018-09-17T19:06:03.860Z,18.60
2018-09-17T19:08:34.972Z,19.20
2018-09-17T19:11:06.052Z,20.17
2018-09-17T19:13:36.978Z,20.70
2018-09-17T19:16:08.094Z,20.00
2018-09-17T19:18:38.782Z,20.00
2018-09-17T19:21:09.800Z,20.60
2018-09-17T19:24:12.498Z,19.50
2018-09-17T19:26:42.903Z,19.32
2018-09-17T19:29:17.811Z,19.40
2018-09-17T19:31:48.643Z,20.30
2018-09-17T19:34:18.732Z,19.90
2018-09-17T19:36:48.787Z,20.60
2018-09-17T19:39:23.615Z,19.37
2018-09-17T19:41:53.909Z,19.00
2018-09-17T19:44:24.072Z,15.73
2018-09-17T19:46:54.728Z,13.90
2018-09-17T19:49:24.973Z,14.30
2018-09-17T19:51:59.478Z,14.00
2018-09-17T19:54:29.404Z,13.43
2018-09-17T19:56:59.724Z,13.03
2018-09-17T19:59:35.110Z,13.13
2018-09-17T20:02:05.379Z,11.90
2018-09-17T20:04:40.227Z,11.87
2018-09-17T20:07:10.102Z,12.10
2018-09-17T20:09:40.050Z,13.13
2018-09-17T20:12:10.086Z,13.37
2018-09-17T20:14:40.110Z,12.53
2018-09-17T20:17:10.191Z,13.37
2018-09-17T20:19:40.083Z,13.37
2018-09-17T20:22:11.327Z,13.70
2018-09-17T20:24:42.134Z,15.90
2018-09-17T20:27:12.152Z,16.23
2018-09-17T20:29:42.877Z,16.17
2018-09-17T20:32:13.228Z,17.23
2018-09-17T20:34:43.429Z,18.33
2018-09-17T20:37:13.844Z,16.30
2018-09-17T20:39:45.527Z,16.37
2018-09-17T20:42:16.060Z,16.13
2018-09-17T20:44:46.510Z,15.63
2018-09-17T20:47:16.940Z,15.60
2018-09-17T20:49:47.289Z,16.03
2018-09-17T20:52:17.754Z,16.00
2018-09-17T20:54:48.619Z,16.13
2018-09-17T20:57:19.833Z,15.97
2018-09-17T20:59:50.738Z,14.97
2018-09-17T21:02:21.575Z,14.33
2018-09-17T21:04:52.875Z,14.50
2018-09-17T21:07:23.488Z,14.77
2018-09-17T21:09:53.993Z,14.23
2018-09-17T21:12:25.054Z,14.23
2018-09-17T21:14:55.926Z,14.17
2018-09-17T21:17:27.170Z,13.23
2018-09-17T21:19:57.837Z,13.63
2018-09-17T21:22:28.611Z,12.80
2018-09-17T21:24:59.511Z,13.25
2018-09-17T21:27:30.226Z,13.33
2018-09-17T21:30:00.792Z,13.03
2018-09-17T21:32:32.885Z,13.40
2018-09-17T21:35:07.490Z,13.20
2018-09-17T21:37:38.320Z,13.20
2018-09-17T21:40:09.218Z,13.17
2018-09-17T21:42:39.461Z,12.67
2018-09-17T21:45:10.739Z,12.65
2018-09-17T21:47:41.455Z,12.90
2018-09-17T21:50:11.399Z,14.00
2018-09-17T21:52:41.282Z,12.67
2018-09-17T21:55:11.294Z,13.70
2018-09-17T21:57:41.337Z,12.33
2018-09-17T22:00:11.651Z,13.33
2018-09-17T22:02:44.061Z,13.07
2018-09-17T22:05:14.148Z,12.53
2018-09-17T22:07:44.464Z,14.00
2018-09-17T22:10:14.677Z,12.70
2018-09-17T22:12:45.772Z,14.07
2018-09-17T22:15:16.242Z,12.63
2018-09-17T22:17:46.069Z,12.47
2018-09-17T22:20:16.025Z,12.60
2018-09-17T22:22:46.149Z,11.50
2018-09-17T22:25:16.027Z,12.50
2018-09-17T22:27:45.802Z,12.83
2018-09-17T22:30:15.864Z,13.13
2018-09-17T22:32:45.730Z,12.27
2018-09-17T22:35:16.031Z,12.63
2018-09-17T22:37:46.086Z,12.90
2018-09-17T22:40:15.857Z,12.93
2018-09-17T22:42:45.896Z,13.40
2018-09-17T22:45:15.840Z,14.10
2018-09-17T22:47:45.802Z,13.90
2018-09-17T22:50:15.978Z,13.98
2018-09-17T22:52:45.800Z,12.50
2018-09-17T22:55:15.738Z,12.30
2018-09-17T22:57:46.280Z,12.05
2018-09-17T23:00:16.630Z,12.55
2018-09-17T23:02:46.509Z,12.33
2018-09-17T23:05:16.334Z,13.73
2018-09-17T23:07:46.111Z,14.80
2018-09-17T23:10:16.303Z,14.85
2018-09-17T23:12:46.370Z,14.17
2018-09-17T23:15:16.279Z,12.60
2018-09-17T23:17:46.253Z,13.20
2018-09-17T23:20:16.580Z,12.87
2018-09-17T23:22:46.425Z,13.07
2018-09-17T23:25:16.241Z,12.73
2018-09-17T23:27:46.108Z,12.80
2018-09-17T23:30:16.520Z,12.47
2018-09-17T23:32:46.439Z,13.23
2018-09-17T23:35:16.809Z,12.54
2018-09-17T23:37:47.725Z,12.82
2018-09-17T23:40:19.006Z,13.15
2018-09-17T23:42:49.890Z,12.95
2018-09-17T23:45:20.648Z,11.80
2018-09-17T23:47:51.678Z,12.93
2018-09-17T23:50:22.528Z,13.25
2018-09-17T23:52:53.873Z,13.22
2018-09-17T23:55:24.765Z,12.33
2018-09-17T23:57:55.572Z,12.10
